Weather reports worldwide

Advertisment
Siracusa, Italy (16464): temperature & dewpoint: 06.11.2019 16:00:00 - 12.11.2019 16:00:00 (CET)Siracusa, Italy (16464): wind speed: 06.11.2019 16:00:00 - 12.11.2019 16:00:00 (CET)Siracusa, Italy (16464): wind direction: 06.11.2019 16:00:00 - 12.11.2019 16:00:00 (CET)Siracusa, Italy (16464): reduced air pressure: 06.11.2019 16:00:00 - 12.11.2019 16:00:00 (CET)Siracusa, Italy (16464): precipitation: 06.11.2019 16:00:00 - 12.11.2019 16:00:00 (CET)
Date & Time tt [°C] td [°C] ff [km/h] ff [kn] dd ppp [hPa] rr [mm]
12.11.2019 16:00:00 - - - - - - -
12.11.2019 15:00:00 17,4 11,8 52 28 SW 997,3 -
12.11.2019 14:00:00 17,7 10,5 61 33 WSW 996,8 -
12.11.2019 13:00:00 16,8 11,5 52 28 SW 997,4 -
12.11.2019 12:00:00 16,1 11,2 48 26 WSW 998,3 -
12.11.2019 11:00:00 16,5 11,6 29 16 SW 998,8 -
12.11.2019 10:00:00 - - - - - - -
12.11.2019 09:00:00 - - - - - - -
12.11.2019 08:00:00 - - - - - - -
12.11.2019 07:00:00 15,7 14,0 9 5 SSW 996,3 -
12.11.2019 06:00:00 15,8 13,4 29 16 S 998,4 -
12.11.2019 05:00:00 17,5 14,1 29 16 SW 997,5 -
12.11.2019 04:00:00 18,8 15,4 15 8 SSW 997,2 -
12.11.2019 03:00:00 17,6 13,2 2 1 SW 998,5 -
12.11.2019 02:00:00 19,2 15,0 16 9 SW 999,7 -
12.11.2019 01:00:00 19,0 16,5 13 7 SW 999,5 -
12.11.2019 00:00:00 19,2 17,5 34 18 SW 999,1 -
11.11.2019 23:00:00 19,5 17,2 35 19 SSW 1001,2 -
11.11.2019 22:00:00 20,0 18,1 18 10 WSW 1000,5 -
11.11.2019 21:00:00 15,7 14,0 15 8 WNW 1002,0 -
11.11.2019 20:00:00 14,6 12,3 16 9 W 1004,0 -
11.11.2019 19:00:00 16,8 13,1 13 7 WSW 1004,6 -
11.11.2019 18:00:00 17,9 15,3 9 5 WNW 1004,2 -
11.11.2019 17:00:00 19,0 14,8 24 13 WSW 1003,4 -
11.11.2019 16:00:00 19,6 15,6 39 21 SW 1004,2 -
11.11.2019 15:00:00 - - - - - - -
11.11.2019 14:00:00 20,1 14,4 28 15 SW 1006,6 -
11.11.2019 13:00:00 20,8 12,9 26 14 SSW 1009,0 -
11.11.2019 12:00:00 21,2 12,3 24 13 SSW 1009,8 -
11.11.2019 11:00:00 21,6 12,1 22 12 SSW 1010,5 -
11.11.2019 10:00:00 21,2 13,0 - - - 1011,4 -
11.11.2019 09:00:00 - - - - - - -
11.11.2019 08:00:00 - - - - - - -
11.11.2019 07:00:00 - - - - - - -
11.11.2019 06:00:00 - - - - - - -
11.11.2019 05:00:00 - - - - - - -
11.11.2019 04:00:00 - - - - - - -
11.11.2019 03:00:00 - - - - - - -
11.11.2019 02:00:00 - - - - - - -
11.11.2019 01:00:00 - - - - - - -
11.11.2019 00:00:00 14,3 10,5 4 2 SW 1014,6 -
10.11.2019 23:00:00 14,5 10,7 0 0 N 1014,8 -
10.11.2019 22:00:00 14,7 10,7 4 2 SSW 1015,0 -
10.11.2019 21:00:00 14,3 10,3 4 2 SSW 1014,8 -
10.11.2019 20:00:00 14,1 8,7 4 2 SSW 1014,1 -
10.11.2019 19:00:00 15,6 8,5 2 1 SSW 1013,7 0,0
10.11.2019 18:00:00 16,5 7,9 2 1 SSW 1013,6 -
10.11.2019 17:00:00 18,4 8,9 4 2 SSW 1013,2 -
10.11.2019 16:00:00 20,1 7,7 11 6 SW 1013,3 -
10.11.2019 15:00:00 20,5 7,8 16 9 SSW 1013,1 -
10.11.2019 14:00:00 20,7 7,6 15 8 SSW 1013,1 -
10.11.2019 13:00:00 20,4 8,3 15 8 SW 1013,4 -
10.11.2019 12:00:00 20,3 8,9 13 7 SW 1014,0 -
10.11.2019 11:00:00 19,4 9,2 11 6 SW 1014,3 -
10.11.2019 10:00:00 - - - - - - -
10.11.2019 09:00:00 - - - - - - -
10.11.2019 08:00:00 - - - - - - -
10.11.2019 07:00:00 - - - - - - 0,0
10.11.2019 06:00:00 - - - - - - -
10.11.2019 05:00:00 - - - - - - -
10.11.2019 04:00:00 - - - - - - -
10.11.2019 03:00:00 - - - - - - -
10.11.2019 02:00:00 - - - - - - -
10.11.2019 01:00:00 - - - - - - -
10.11.2019 00:00:00 - - - - - - -
09.11.2019 23:00:00 - - - - - - -
09.11.2019 22:00:00 - - - - - - -
09.11.2019 21:00:00 - - - - - - -
09.11.2019 20:00:00 - - - - - - -
09.11.2019 19:00:00 14,1 6,9 2 1 SSW 1013,0 -
09.11.2019 18:00:00 15,5 7,2 8 4 SSW 1011,3 -
09.11.2019 17:00:00 - - 8 4 SSW 1011,9 -
09.11.2019 16:00:00 16,1 8,8 15 8 SSW 1012,4 -
09.11.2019 15:00:00 - - 28 15 SSW 1012,2 -
09.11.2019 14:00:00 15,9 12,4 5 3 SW 1011,5 -
09.11.2019 13:00:00 18,2 12,8 29 16 SSW 1012,1 -
09.11.2019 12:00:00 20,6 16,1 8 4 SW 1012,2 -
09.11.2019 11:00:00 18,9 16,3 0 0 N 1013,3 -
09.11.2019 10:00:00 - - - - - - -
09.11.2019 09:00:00 - - - - - - -
09.11.2019 08:00:00 - - - - - - -
09.11.2019 07:00:00 - - - - - - -
09.11.2019 06:00:00 - - - - - - -
09.11.2019 05:00:00 - - - - - - -
09.11.2019 04:00:00 - - - - - - -
09.11.2019 03:00:00 - - - - - - -
09.11.2019 02:00:00 - - - - - - -
09.11.2019 01:00:00 - - - - - - -
09.11.2019 00:00:00 - - - - - - -
08.11.2019 23:00:00 15,7 11,6 9 5 SW 1013,9 -
08.11.2019 22:00:00 14,9 10,7 4 2 SSW 1013,9 -
08.11.2019 21:00:00 15,8 11,5 4 2 SSW 1013,6 -
08.11.2019 20:00:00 16,1 11,6 8 4 SSW 1013,6 -
08.11.2019 19:00:00 17,4 13,4 4 2 SSW 1013,0 -
08.11.2019 18:00:00 17,7 12,8 4 2 S 1012,8 -
08.11.2019 17:00:00 19,1 13,8 8 4 S 1012,4 -
08.11.2019 16:00:00 19,6 14,8 8 4 S 1012,1 -
08.11.2019 15:00:00 18,5 14,3 18 10 S 1012,2 -
08.11.2019 14:00:00 19,7 13,3 4 2 SSW 1012,1 -
08.11.2019 13:00:00 20,9 11,5 15 8 SSW 1012,4 -
08.11.2019 12:00:00 20,6 14,2 13 7 SSW 1013,0 -
08.11.2019 11:00:00 21,3 12,1 15 8 SSW 1013,3 -
08.11.2019 10:00:00 - - - - - - -
08.11.2019 09:00:00 - - - - - - -
08.11.2019 08:00:00 - - - - - - -
08.11.2019 07:00:00 - - - - - - -
08.11.2019 06:00:00 - - - - - - -
08.11.2019 05:00:00 - - - - - - -
08.11.2019 04:00:00 - - - - - - -
08.11.2019 03:00:00 - - - - - - -
08.11.2019 02:00:00 - - - - - - -
08.11.2019 01:00:00 - - - - - - -
08.11.2019 00:00:00 - - - - - - -
07.11.2019 23:00:00 13,7 - - - - - -
07.11.2019 22:00:00 14,5 7,7 4 2 SSW 1011,0 -
07.11.2019 21:00:00 15,3 8,2 5 3 SSW 1010,8 -
07.11.2019 20:00:00 16,2 9,1 4 2 S 1010,3 -
07.11.2019 19:00:00 17,5 10,1 5 3 NW 1010,1 -
07.11.2019 18:00:00 18,2 10,3 5 3 W 1009,6 -
07.11.2019 17:00:00 19,6 11,3 8 4 W 1009,0 -
07.11.2019 16:00:00 20,0 12,2 5 3 W 1008,4 -
07.11.2019 15:00:00 19,5 12,5 9 5 W 1007,8 -
07.11.2019 14:00:00 19,6 13,0 18 10 WNW 1007,6 -
07.11.2019 13:00:00 18,5 14,5 11 6 W 1007,4 -
07.11.2019 12:00:00 16,8 14,9 9 5 SW 1007,4 -
07.11.2019 11:00:00 16,0 13,8 - - - 1008,9 -
07.11.2019 10:00:00 15,6 13,2 - - - 1009,6 -
07.11.2019 09:00:00 15,6 13,2 - - - 1008,8 -
07.11.2019 08:00:00 15,6 13,2 - - - 1008,7 -
07.11.2019 07:00:00 15,3 12,9 5 3 S 1008,6 -
07.11.2019 06:00:00 15,1 12,6 0 0 N 1007,7 -
07.11.2019 05:00:00 15,2 12,8 0 0 N 1007,6 -
07.11.2019 04:00:00 15,3 12,6 5 3 SW 1007,7 -
07.11.2019 03:00:00 15,7 12,8 0 0 N 1007,6 -
07.11.2019 02:00:00 16,1 12,9 5 3 NW 1008,3 -
07.11.2019 01:00:00 16,6 13,4 0 0 N 1009,1 -
07.11.2019 00:00:00 16,8 13,4 4 2 SW 1010,2 -
06.11.2019 23:00:00 17,2 13,4 5 3 SSW 1009,3 -
06.11.2019 22:00:00 17,4 13,2 2 1 WNW 1008,5 -
06.11.2019 21:00:00 18,4 14,4 4 2 WNW 1008,5 -
06.11.2019 20:00:00 18,8 14,8 8 4 WNW 1008,7 -
06.11.2019 19:00:00 18,9 14,9 15 8 WNW 1008,4 -
06.11.2019 18:00:00 18,9 14,1 18 10 W 1008,2 -
06.11.2019 17:00:00 20,1 16,3 16 9 W 1007,5 -
06.11.2019 16:00:00 22,7 20,5 13 7 SW 1006,9 -

tt = temperature
td = dewpoint
ff = wind speed
dd = wind direction
ppp = reduced air pressure
rr = precipitation

Next stations